Time;durP1;ratioP1;P1;durP2;ratioP2;P2;SDS_P1;SDS_P2;PMS_P1;PMS_P2;Temp;Humidity;BMP_temperature;BMP_pressure;BME280_temperature;BME280_humidity;BME280_pressure;Samples;Min_cycle;Max_cycle;Signal;HPM_P1;HPM_P2
2021/07/23 00:01:01;;;;;;;8.23;6.43;;;19.40;71.80;;;;;;4924877;29;20464;-41
2021/07/23 00:03:28;;;;;;;8.90;6.03;;;19.40;71.90;;;;;;4927366;29;20467;-42
2021/07/23 00:05:55;;;;;;;8.30;7.13;;;19.30;71.90;;;;;;4924883;29;20547;-41
2021/07/23 00:08:22;;;;;;;11.63;7.27;;;19.30;72.00;;;;;;4929908;29;20456;-41
2021/07/23 00:10:49;;;;;;;8.20;6.10;;;19.30;72.00;;;;;;4925537;29;20560;-42
2021/07/23 00:13:16;;;;;;;7.90;6.17;;;19.30;72.00;;;;;;4926753;29;20918;-41
2021/07/23 00:15:42;;;;;;;7.90;7.10;;;19.30;71.80;;;;;;4924118;29;20464;-40
2021/07/23 00:18:09;;;;;;;6.63;5.90;;;19.20;71.70;;;;;;4925456;29;20680;-42
2021/07/23 00:20:36;;;;;;;7.20;6.10;;;19.20;71.80;;;;;;4925087;29;20548;-40
2021/07/23 00:23:03;;;;;;;7.60;6.30;;;19.20;71.80;;;;;;4925809;29;20509;-41
2021/07/23 00:25:30;;;;;;;11.30;6.57;;;19.20;71.60;;;;;;4925728;29;20460;-42
2021/07/23 00:27:57;;;;;;;8.77;6.07;;;19.20;71.70;;;;;;4926682;29;20493;-41
2021/07/23 00:30:26;;;;;;;10.17;7.30;;;19.20;71.80;;;;;;4924366;29;20467;-41
2021/07/23 00:32:53;;;;;;;11.00;6.83;;;19.20;71.70;;;;;;4929381;29;20467;-42
2021/07/23 00:35:20;;;;;;;8.03;5.60;;;19.10;71.80;;;;;;4928992;28;20500;-42
2021/07/23 00:37:47;;;;;;;8.37;6.70;;;19.10;72.00;;;;;;4929026;29;20551;-40
2021/07/23 00:40:14;;;;;;;9.43;6.27;;;19.10;72.10;;;;;;4930461;29;20499;-40
2021/07/23 00:42:43;;;;;;;10.43;6.03;;;19.00;72.10;;;;;;4926055;29;20459;-41
2021/07/23 00:45:10;;;;;;;8.87;6.83;;;19.00;72.10;;;;;;4931515;29;20966;-41
2021/07/23 00:47:39;;;;;;;10.77;6.93;;;19.00;72.40;;;;;;4920275;29;20881;-41
2021/07/23 00:50:07;;;;;;;7.60;6.80;;;18.90;72.50;;;;;;4924351;29;20488;-42
2021/07/23 00:52:35;;;;;;;9.03;6.27;;;18.90;72.60;;;;;;4927275;29;20860;-41
2021/07/23 00:55:02;;;;;;;7.93;7.10;;;18.80;72.70;;;;;;4925270;29;21043;-39
2021/07/23 00:57:30;;;;;;;8.20;6.07;;;18.80;72.90;;;;;;4931209;29;20543;-42
2021/07/23 00:59:58;;;;;;;8.20;6.23;;;18.80;73.00;;;;;;4928309;28;20496;-41
2021/07/23 01:02:25;;;;;;;8.67;5.93;;;18.80;73.00;;;;;;4929227;29;20491;-41
2021/07/23 01:04:52;;;;;;;9.40;6.70;;;18.80;73.20;;;;;;4925229;29;20475;-41
2021/07/23 01:07:19;;;;;;;9.13;6.33;;;18.80;73.20;;;;;;4928428;29;20463;-41
2021/07/23 01:09:47;;;;;;;8.00;5.93;;;18.80;73.30;;;;;;4928811;29;20487;-42
2021/07/23 01:12:14;;;;;;;9.70;7.33;;;18.70;73.40;;;;;;4926901;29;20532;-41
2021/07/23 01:14:42;;;;;;;8.93;7.13;;;18.70;73.50;;;;;;4920372;29;20503;-42
2021/07/23 01:17:09;;;;;;;9.57;7.17;;;18.70;73.50;;;;;;4925812;29;21066;-42
2021/07/23 01:19:49;;;;;;;8.60;5.90;;;18.70;73.60;;;;;;4932130;29;20563;-40
2021/07/23 01:22:18;;;;;;;9.30;5.93;;;18.70;73.60;;;;;;4926487;29;20499;-42
2021/07/23 01:24:46;;;;;;;7.27;5.97;;;18.60;73.80;;;;;;4925385;29;20483;-41
2021/07/23 01:27:12;;;;;;;11.70;6.77;;;18.60;73.90;;;;;;4929271;29;20557;-41
2021/07/23 01:29:40;;;;;;;9.87;7.00;;;18.60;74.00;;;;;;4927672;29;20506;-40
2021/07/23 01:32:07;;;;;;;8.27;6.57;;;18.60;74.00;;;;;;4928044;29;20554;-42
2021/07/23 01:34:34;;;;;;;6.30;5.47;;;18.60;74.00;;;;;;4929831;29;20539;-41
2021/07/23 01:37:01;;;;;;;9.40;5.87;;;18.60;74.10;;;;;;4925402;29;20954;-40
2021/07/23 01:39:28;;;;;;;7.17;5.40;;;18.60;74.10;;;;;;4927236;29;20520;-40
2021/07/23 01:41:55;;;;;;;6.87;5.90;;;18.60;74.00;;;;;;4927974;29;20514;-39
2021/07/23 01:44:22;;;;;;;9.87;6.17;;;18.50;73.80;;;;;;4929964;29;20464;-38
2021/07/23 01:46:49;;;;;;;10.03;6.30;;;18.50;74.00;;;;;;4926068;29;20498;-41
2021/07/23 01:49:16;;;;;;;10.43;6.53;;;18.40;74.10;;;;;;4922838;29;20476;-41
2021/07/23 01:51:42;;;;;;;8.43;6.60;;;18.40;74.20;;;;;;4926941;29;20459;-39
2021/07/23 01:54:09;;;;;;;8.30;6.73;;;18.40;74.30;;;;;;4923113;29;20929;-40
2021/07/23 01:56:36;;;;;;;10.40;6.70;;;18.30;74.50;;;;;;4928319;29;20554;-40
2021/07/23 01:59:03;;;;;;;8.50;6.23;;;18.30;74.60;;;;;;4922303;29;20499;-40
2021/07/23 02:01:29;;;;;;;9.53;6.83;;;18.30;74.60;;;;;;4923264;28;20465;-42
2021/07/23 02:03:56;;;;;;;8.87;7.03;;;18.30;74.70;;;;;;4927860;29;20465;-41
2021/07/23 02:06:23;;;;;;;8.70;6.70;;;18.30;74.70;;;;;;4923375;29;20454;-39
2021/07/23 02:08:50;;;;;;;8.47;6.80;;;18.20;74.70;;;;;;4924975;29;20471;-41
2021/07/23 02:11:17;;;;;;;11.93;7.30;;;18.20;74.80;;;;;;4922109;29;20969;-41
2021/07/23 02:13:43;;;;;;;8.17;6.50;;;18.20;74.90;;;;;;4924073;29;20490;-39
2021/07/23 02:16:10;;;;;;;12.43;8.33;;;18.20;75.00;;;;;;4928788;29;20582;-39
2021/07/23 02:18:37;;;;;;;9.00;7.10;;;18.20;75.10;;;;;;4925581;29;20487;-41
2021/07/23 02:21:07;;;;;;;7.50;6.43;;;18.20;75.30;;;;;;4927340;29;20500;-41
2021/07/23 02:23:35;;;;;;;7.23;6.50;;;18.10;75.50;;;;;;4923275;29;20570;-40
2021/07/23 02:26:02;;;;;;;11.10;6.63;;;18.10;75.70;;;;;;4926310;29;20460;-40
2021/07/23 02:28:29;;;;;;;9.53;7.40;;;18.10;75.80;;;;;;4923034;29;21003;-39
2021/07/23 02:30:56;;;;;;;8.10;7.13;;;18.10;75.70;;;;;;4929678;29;20536;-39
2021/07/23 02:33:22;;;;;;;10.40;7.33;;;18.10;75.50;;;;;;4922054;29;20463;-40
2021/07/23 02:35:49;;;;;;;8.73;6.70;;;18.10;75.50;;;;;;4921759;29;20481;-39
2021/07/23 02:38:16;;;;;;;8.43;6.50;;;18.10;75.50;;;;;;4927352;29;20460;-41
2021/07/23 02:40:43;;;;;;;7.63;6.80;;;18.10;75.50;;;;;;4924268;29;20492;-40
2021/07/23 02:43:09;;;;;;;10.83;7.07;;;18.10;75.50;;;;;;4924021;29;20542;-40
2021/07/23 02:45:36;;;;;;;8.23;7.03;;;18.00;75.70;;;;;;4924621;29;20921;-40
2021/07/23 02:48:03;;;;;;;9.47;7.30;;;18.00;75.80;;;;;;4923003;29;20468;-41
2021/07/23 02:50:30;;;;;;;7.47;6.23;;;18.00;75.90;;;;;;4921263;29;20469;-42
2021/07/23 02:52:59;;;;;;;8.93;6.90;;;17.90;76.10;;;;;;4922809;29;21228;-42
2021/07/23 02:55:29;;;;;;;9.47;7.23;;;17.90;76.20;;;;;;4922126;29;20518;-41
2021/07/23 02:57:56;;;;;;;8.00;7.10;;;17.90;76.30;;;;;;4926677;29;20456;-41
2021/07/23 03:00:23;;;;;;;12.30;7.30;;;17.90;76.30;;;;;;4922174;29;21026;-41
2021/07/23 03:02:50;;;;;;;12.90;7.90;;;17.90;76.40;;;;;;4919591;29;20498;-41
2021/07/23 03:05:17;;;;;;;9.70;7.40;;;17.90;76.60;;;;;;4924602;29;20563;-40
2021/07/23 03:07:44;;;;;;;9.90;7.57;;;17.90;76.70;;;;;;4922138;29;20560;-41
2021/07/23 03:10:12;;;;;;;8.50;7.20;;;17.90;76.80;;;;;;4923069;29;20468;-41
2021/07/23 03:12:38;;;;;;;9.47;7.30;;;17.90;76.80;;;;;;4924398;29;20936;-42
2021/07/23 03:15:06;;;;;;;7.53;6.63;;;17.90;76.80;;;;;;4927390;29;20471;-42
2021/07/23 03:17:33;;;;;;;13.87;7.60;;;17.90;76.80;;;;;;4921181;29;21019;-42
2021/07/23 03:20:00;;;;;;;10.90;6.60;;;17.80;76.70;;;;;;4921329;29;20904;-43
2021/07/23 03:22:30;;;;;;;9.10;7.57;;;17.80;76.50;;;;;;4926798;29;20554;-41
2021/07/23 03:24:57;;;;;;;7.97;6.23;;;17.80;76.40;;;;;;4921213;29;20565;-40
2021/07/23 03:27:24;;;;;;;9.83;7.03;;;17.80;76.30;;;;;;4921977;29;20551;-42
2021/07/23 03:29:52;;;;;;;8.67;7.30;;;17.70;76.30;;;;;;4924654;29;20465;-41
2021/07/23 03:32:19;;;;;;;8.37;6.57;;;17.70;76.10;;;;;;4926465;29;20473;-41
2021/07/23 03:34:46;;;;;;;7.83;6.70;;;17.70;76.20;;;;;;4922366;29;20475;-42
2021/07/23 03:37:13;;;;;;;9.97;6.50;;;17.70;76.10;;;;;;4920350;29;20474;-41
2021/07/23 03:39:42;;;;;;;9.20;7.03;;;17.60;76.00;;;;;;4928615;29;20492;-41
2021/07/23 03:42:09;;;;;;;8.23;6.43;;;17.60;76.00;;;;;;4923042;29;20584;-40
2021/07/23 03:44:36;;;;;;;10.30;7.20;;;17.50;75.90;;;;;;4922537;29;20498;-41
2021/07/23 03:47:03;;;;;;;10.10;6.60;;;17.50;76.00;;;;;;4923181;29;20511;-41
2021/07/23 03:49:29;;;;;;;10.27;7.00;;;17.50;76.20;;;;;;4926739;29;20507;-41
2021/07/23 03:51:58;;;;;;;8.27;6.93;;;17.40;76.30;;;;;;4917153;29;20464;-40
2021/07/23 03:54:25;;;;;;;10.37;7.17;;;17.40;76.60;;;;;;4922081;29;20504;-41
2021/07/23 03:56:52;;;;;;;10.50;7.10;;;17.40;76.70;;;;;;4925431;29;20492;-40
2021/07/23 03:59:19;;;;;;;10.30;6.20;;;17.40;76.70;;;;;;4921687;29;20638;-42
2021/07/23 04:01:45;;;;;;;10.03;7.03;;;17.40;76.80;;;;;;4918942;29;21145;-42
2021/07/23 04:04:12;;;;;;;9.13;6.60;;;17.30;76.90;;;;;;4927591;29;20534;-41
2021/07/23 04:06:39;;;;;;;10.53;7.37;;;17.30;76.90;;;;;;4925294;29;21870;-41
2021/07/23 04:09:06;;;;;;;11.07;7.13;;;17.30;77.00;;;;;;4925980;29;20468;-41
2021/07/23 04:11:46;;;;;;;10.40;7.73;;;17.30;77.00;;;;;;4925031;29;20491;-41
2021/07/23 04:14:15;;;;;;;10.00;6.77;;;17.30;77.00;;;;;;4924510;29;20513;-42
2021/07/23 04:16:42;;;;;;;10.27;7.20;;;17.30;77.00;;;;;;4927203;29;20464;-42
2021/07/23 04:19:09;;;;;;;10.73;6.40;;;17.30;77.00;;;;;;4923500;29;20576;-42
2021/07/23 04:21:36;;;;;;;7.73;6.67;;;17.30;77.10;;;;;;4927541;29;20466;-41
2021/07/23 04:24:03;;;;;;;9.97;6.83;;;17.30;77.10;;;;;;4925516;29;20499;-42
2021/07/23 04:26:30;;;;;;;10.60;7.47;;;17.30;77.20;;;;;;4926685;29;20465;-41
2021/07/23 04:28:57;;;;;;;10.27;7.47;;;17.30;77.40;;;;;;4927328;29;20890;-42
2021/07/23 04:31:24;;;;;;;8.73;7.30;;;17.30;77.40;;;;;;4927783;29;20519;-41
2021/07/23 04:33:50;;;;;;;9.77;7.23;;;17.30;77.50;;;;;;4928976;29;20505;-40
2021/07/23 04:36:17;;;;;;;8.30;7.30;;;17.30;77.50;;;;;;4930239;29;20563;-41
2021/07/23 04:38:44;;;;;;;9.63;6.87;;;17.30;77.50;;;;;;4927623;29;20460;-41
2021/07/23 04:41:12;;;;;;;8.90;7.10;;;17.30;77.60;;;;;;4926886;29;20523;-42
2021/07/23 04:43:39;;;;;;;10.33;7.30;;;17.30;77.60;;;;;;4927377;29;21049;-41
2021/07/23 04:46:07;;;;;;;10.60;8.57;;;17.40;77.70;;;;;;4926566;29;20555;-41
2021/07/23 04:48:34;;;;;;;11.30;7.57;;;17.40;77.70;;;;;;4925530;29;20507;-41
2021/07/23 04:51:04;;;;;;;15.40;7.00;;;17.50;77.30;;;;;;4922135;29;20549;-40
2021/07/23 04:53:31;;;;;;;9.93;6.93;;;17.50;76.90;;;;;;4924815;29;20464;-40
2021/07/23 04:56:01;;;;;;;10.70;7.03;;;17.60;76.70;;;;;;4927718;29;20572;-41
2021/07/23 04:58:28;;;;;;;8.83;6.93;;;17.60;76.50;;;;;;4924083;29;20551;-42
2021/07/23 05:00:55;;;;;;;10.07;6.80;;;17.60;76.50;;;;;;4925869;29;20861;-41
2021/07/23 05:03:38;;;;;;;9.40;7.50;;;17.60;76.50;;;;;;4928935;29;20810;-41
2021/07/23 05:06:08;;;;;;;10.53;7.40;;;17.70;76.60;;;;;;4923154;29;20841;-42
2021/07/23 05:08:36;;;;;;;11.13;7.90;;;17.70;76.70;;;;;;4924764;29;20964;-41
2021/07/23 05:11:09;;;;;;;9.00;7.63;;;17.70;76.90;;;;;;4926998;29;20495;-41
2021/07/23 05:13:36;;;;;;;9.67;8.40;;;17.80;76.90;;;;;;4925377;29;20997;-41
2021/07/23 05:16:04;;;;;;;11.00;7.73;;;17.80;77.10;;;;;;4925598;29;20461;-41
2021/07/23 05:18:33;;;;;;;10.00;7.87;;;17.80;77.20;;;;;;4920982;29;20464;-42
2021/07/23 05:21:00;;;;;;;13.57;8.30;;;17.90;77.20;;;;;;4922052;29;20497;-41
2021/07/23 05:23:27;;;;;;;9.57;8.57;;;17.90;77.10;;;;;;4926512;29;20470;-40
2021/07/23 05:25:53;;;;;;;16.43;7.80;;;18.00;77.10;;;;;;4926423;29;20540;-40
2021/07/23 05:28:20;;;;;;;10.70;7.80;;;18.10;77.10;;;;;;4926049;29;20804;-41
2021/07/23 05:31:04;;;;;;;10.73;8.03;;;18.10;77.30;;;;;;4928390;29;20460;-41
2021/07/23 05:33:31;;;;;;;9.17;7.67;;;18.20;77.30;;;;;;4924675;29;20473;-41
2021/07/23 05:35:58;;;;;;;10.80;8.53;;;18.20;77.30;;;;;;4927672;29;20504;-41
2021/07/23 05:38:25;;;;;;;10.23;7.33;;;18.30;77.10;;;;;;4930070;29;20475;-42
2021/07/23 05:40:51;;;;;;;10.17;8.03;;;18.30;77.00;;;;;;4925029;29;21084;-42
2021/07/23 05:43:19;;;;;;;11.90;7.63;;;18.40;76.90;;;;;;4927447;29;20893;-41
2021/07/23 05:45:46;;;;;;;10.13;7.17;;;18.40;76.80;;;;;;4926086;29;20984;-42
2021/07/23 05:48:13;;;;;;;10.37;7.27;;;18.50;76.90;;;;;;4922032;29;20460;-41
2021/07/23 05:50:40;;;;;;;14.50;7.97;;;18.60;76.70;;;;;;4927313;29;21025;-41
2021/07/23 05:53:06;;;;;;;11.57;7.47;;;18.60;76.50;;;;;;4921784;29;20907;-42
2021/07/23 05:55:33;;;;;;;9.00;6.93;;;18.70;76.40;;;;;;4924275;29;20467;-42
2021/07/23 05:58:00;;;;;;;8.97;7.60;;;18.80;75.90;;;;;;4925812;29;20475;-42
2021/07/23 06:00:27;;;;;;;10.90;7.90;;;18.90;75.70;;;;;;4930882;29;20523;-40
2021/07/23 06:03:00;;;;;;;15.17;8.07;;;18.90;75.60;;;;;;4924524;29;20500;-42
2021/07/23 06:05:27;;;;;;;9.67;7.17;;;19.00;75.70;;;;;;4923281;29;20456;-42
2021/07/23 06:07:54;;;;;;;9.20;6.57;;;19.10;75.50;;;;;;4924695;29;20466;-41
2021/07/23 06:10:21;;;;;;;11.60;8.00;;;19.20;75.00;;;;;;4927812;29;20460;-43
2021/07/23 06:12:47;;;;;;;8.50;7.30;;;19.20;74.70;;;;;;4924322;29;20556;-42
2021/07/23 06:15:16;;;;;;;13.67;7.33;;;19.30;74.60;;;;;;4927526;29;20475;-42
2021/07/23 06:17:43;;;;;;;10.50;6.87;;;19.30;74.50;;;;;;4926264;29;20563;-42
2021/07/23 06:20:11;;;;;;;11.00;6.90;;;19.40;74.10;;;;;;4922637;29;20497;-41
2021/07/23 06:22:37;;;;;;;11.80;7.37;;;19.50;73.90;;;;;;4925942;29;20511;-41
2021/07/23 06:25:04;;;;;;;11.87;7.53;;;19.50;73.60;;;;;;4922702;29;20465;-42
2021/07/23 06:27:31;;;;;;;13.43;6.80;;;19.60;73.30;;;;;;4923565;29;20837;-40
2021/07/23 06:29:58;;;;;;;10.83;8.07;;;19.70;73.10;;;;;;4929604;29;20996;-42
2021/07/23 06:32:28;;;;;;;9.47;7.27;;;19.80;73.10;;;;;;4923840;29;20468;-40
2021/07/23 06:34:55;;;;;;;11.73;7.77;;;19.90;72.80;;;;;;4921370;29;20544;-43
2021/07/23 06:37:23;;;;;;;11.60;8.17;;;20.00;72.40;;;;;;4923355;29;20457;-41
2021/07/23 06:39:51;;;;;;;14.50;7.33;;;20.10;71.50;;;;;;4923751;29;20531;-41
2021/07/23 06:42:20;;;;;;;9.20;7.00;;;20.20;71.60;;;;;;4919246;29;20455;-41
2021/07/23 06:44:48;;;;;;;11.87;7.87;;;20.30;71.50;;;;;;4924137;29;20577;-42
2021/07/23 06:47:15;;;;;;;7.77;6.50;;;20.40;71.30;;;;;;4917602;29;20546;-42
2021/07/23 06:49:42;;;;;;;11.87;7.90;;;20.40;71.10;;;;;;4922729;29;21029;-41
2021/07/23 06:52:09;;;;;;;11.50;8.27;;;20.60;71.00;;;;;;4923475;29;20490;-42
2021/07/23 06:54:37;;;;;;;15.93;7.70;;;20.70;70.10;;;;;;4928414;29;20484;-42
2021/07/23 06:57:04;;;;;;;12.73;7.83;;;20.80;70.20;;;;;;4923770;29;20489;-42
2021/07/23 06:59:35;;;;;;;14.43;7.47;;;20.90;69.80;;;;;;4925955;29;20974;-42
2021/07/23 07:02:02;;;;;;;9.53;7.23;;;21.00;69.60;;;;;;4924556;29;20541;-41
2021/07/23 07:04:30;;;;;;;10.60;7.50;;;21.10;69.30;;;;;;4922470;29;20492;-42
2021/07/23 07:06:58;;;;;;;10.47;7.20;;;21.10;69.00;;;;;;4923639;29;20535;-42
2021/07/23 07:09:26;;;;;;;10.90;7.30;;;21.20;68.80;;;;;;4925465;29;20886;-42
2021/07/23 07:11:56;;;;;;;9.37;6.90;;;21.30;68.60;;;;;;4925530;29;20503;-42
2021/07/23 07:14:23;;;;;;;16.07;7.40;;;21.50;68.20;;;;;;4922074;29;20488;-43
2021/07/23 07:16:50;;;;;;;11.17;7.47;;;21.60;67.30;;;;;;4921442;29;20474;-43
2021/07/23 07:19:17;;;;;;;12.70;7.20;;;21.80;66.30;;;;;;4925030;29;20558;-42
2021/07/23 07:21:50;;;;;;;8.37;7.00;;;21.90;66.30;;;;;;4923896;29;20511;-41
2021/07/23 07:24:18;;;;;;;15.47;7.10;;;22.10;66.50;;;;;;4922946;29;20500;-42
2021/07/23 07:26:46;;;;;;;9.77;6.83;;;22.20;65.70;;;;;;4921059;29;20460;-42
2021/07/23 07:29:13;;;;;;;8.13;6.60;;;22.30;65.10;;;;;;4925010;29;20543;-41
2021/07/23 07:31:40;;;;;;;9.47;6.73;;;22.50;64.80;;;;;;4924441;29;20543;-42
2021/07/23 07:34:07;;;;;;;9.33;6.07;;;22.60;64.30;;;;;;4924205;29;20515;-42
2021/07/23 07:36:34;;;;;;;8.93;6.20;;;22.70;64.10;;;;;;4922990;29;20534;-42
2021/07/23 07:39:02;;;;;;;9.17;6.50;;;22.90;63.90;;;;;;4927773;29;20460;-43
2021/07/23 07:41:29;;;;;;;10.13;6.50;;;23.00;63.00;;;;;;4931325;29;20532;-41
2021/07/23 07:43:56;;;;;;;8.80;6.93;;;23.20;62.60;;;;;;4929677;29;20527;-42
2021/07/23 07:46:24;;;;;;;9.33;6.97;;;23.40;61.80;;;;;;4927913;29;20495;-43
2021/07/23 07:48:51;;;;;;;10.70;6.87;;;23.50;60.90;;;;;;4925633;29;20448;-43
2021/07/23 07:51:18;;;;;;;9.30;6.83;;;23.70;61.00;;;;;;4928650;29;20464;-44
2021/07/23 07:53:45;;;;;;;7.97;6.60;;;23.80;60.90;;;;;;4927647;29;20456;-42
2021/07/23 07:56:14;;;;;;;9.27;6.80;;;23.90;60.20;;;;;;4931189;29;20466;-43
2021/07/23 07:58:41;;;;;;;8.63;6.10;;;24.00;59.70;;;;;;4926848;29;20490;-43
2021/07/23 08:01:14;;;;;;;7.20;5.30;;;24.20;59.70;;;;;;4925660;29;20578;-41
2021/07/23 08:03:41;;;;;;;7.33;6.20;;;24.30;59.10;;;;;;4926820;29;20553;-42
2021/07/23 08:06:34;;;;;;;8.57;6.10;;;24.50;58.10;;;;;;4932988;29;21003;-41
2021/07/23 08:09:03;;;;;;;7.53;6.63;;;24.70;57.60;;;;;;4926115;29;20949;-43
2021/07/23 08:11:30;;;;;;;5.83;5.23;;;24.90;58.30;;;;;;4929780;29;20479;-41
2021/07/23 08:13:57;;;;;;;7.00;5.87;;;25.00;58.70;;;;;;4927020;29;20541;-43
2021/07/23 08:16:24;;;;;;;12.80;5.93;;;25.20;58.30;;;;;;4931598;29;20512;-42
2021/07/23 08:18:51;;;;;;;9.63;7.00;;;25.30;57.40;;;;;;4928490;29;20447;-41
2021/07/23 08:21:18;;;;;;;7.87;6.17;;;25.50;55.50;;;;;;4923551;29;20578;-42
2021/07/23 08:23:45;;;;;;;8.90;6.23;;;25.60;55.60;;;;;;4923705;29;20456;-42
2021/07/23 08:26:11;;;;;;;8.10;6.63;;;25.70;55.30;;;;;;4926794;29;20458;-42
2021/07/23 08:28:38;;;;;;;7.57;6.23;;;25.80;54.40;;;;;;4924262;29;20480;-42
2021/07/23 08:31:05;;;;;;;7.07;6.17;;;25.90;53.40;;;;;;4925944;29;20502;-42
2021/07/23 08:33:32;;;;;;;8.40;6.70;;;26.10;53.30;;;;;;4929822;29;20452;-42
2021/07/23 08:36:00;;;;;;;13.67;7.67;;;26.20;53.20;;;;;;4925477;29;20470;-44
2021/07/23 08:38:27;;;;;;;10.77;6.50;;;26.40;53.20;;;;;;4911326;29;20464;-42
2021/07/23 08:40:54;;;;;;;7.80;6.53;;;26.50;53.10;;;;;;4924125;29;20499;-43
2021/07/23 08:43:21;;;;;;;10.33;6.87;;;26.50;52.90;;;;;;4926180;29;20490;-43
2021/07/23 08:45:48;;;;;;;10.80;5.90;;;26.60;52.30;;;;;;4932268;29;20606;-44
2021/07/23 08:48:15;;;;;;;7.43;5.60;;;26.70;52.20;;;;;;4925214;29;21425;-43
2021/07/23 08:50:42;;;;;;;7.83;6.27;;;26.90;51.20;;;;;;4929308;29;20547;-42
2021/07/23 08:53:09;;;;;;;11.27;6.53;;;27.00;51.50;;;;;;4925716;29;20491;-41
2021/07/23 08:55:38;;;;;;;10.10;7.43;;;27.20;51.20;;;;;;4928654;29;20470;-42
2021/07/23 08:58:09;;;;;;;11.00;7.13;;;27.30;50.60;;;;;;4927811;29;20663;-42
2021/07/23 09:00:38;;;;;;;9.27;6.70;;;27.50;49.70;;;;;;4924099;29;21042;-43
2021/07/23 09:03:07;;;;;;;7.90;6.60;;;27.50;49.30;;;;;;4923769;29;20464;-43
2021/07/23 09:05:37;;;;;;;9.73;6.40;;;27.70;48.00;;;;;;4925847;29;20457;-42
2021/07/23 09:08:15;;;;;;;8.90;6.00;;;27.80;48.30;;;;;;4924447;29;20669;-42
2021/07/23 09:10:43;;;;;;;7.60;5.90;;;27.90;46.10;;;;;;4925970;29;20459;-43
2021/07/23 09:13:14;;;;;;;9.30;6.70;;;28.10;45.70;;;;;;4924350;29;20235;-42
2021/07/23 09:15:42;;;;;;;8.10;5.67;;;28.20;45.60;;;;;;4927381;29;20278;-41
2021/07/23 09:18:33;;;;;;;7.40;6.40;;;28.50;45.50;;;;;;4926850;29;20632;-43
2021/07/23 09:21:04;;;;;;;7.60;6.80;;;28.80;45.40;;;;;;4925350;29;20319;-41
2021/07/23 09:23:35;;;;;;;8.97;6.83;;;29.10;44.50;;;;;;4927137;29;20665;-42
2021/07/23 09:26:11;;;;;;;7.60;6.40;;;29.40;44.10;;;;;;4930985;29;20291;-41
2021/07/23 09:28:38;;;;;;;11.15;6.95;;;29.70;43.80;;;;;;4925616;29;20725;-41
2021/07/23 09:31:06;;;;;;;7.95;6.75;;;30.00;43.70;;;;;;4924673;29;20212;-42
2021/07/23 09:33:41;;;;;;;8.10;6.32;;;30.20;43.50;;;;;;4924755;29;20216;-42
2021/07/23 09:36:12;;;;;;;6.50;5.82;;;30.60;43.40;;;;;;4927559;29;20222;-42
2021/07/23 09:38:41;;;;;;;7.95;6.00;;;30.90;42.80;;;;;;4927735;29;20270;-42
2021/07/23 09:41:11;;;;;;;10.48;6.50;;;31.20;42.80;;;;;;4929912;29;20314;-42
2021/07/23 09:43:43;;;;;;;11.50;7.10;;;31.50;42.30;;;;;;4923859;29;20290;-43
2021/07/23 09:46:18;;;;;;;9.63;7.07;;;31.80;41.50;;;;;;4927181;29;20209;-43
2021/07/23 09:48:47;;;;;;;9.23;6.95;;;32.10;41.00;;;;;;4927620;29;20681;-43
2021/07/23 09:51:14;;;;;;;8.77;7.03;;;32.40;40.60;;;;;;4929583;29;20298;-44
2021/07/23 09:53:41;;;;;;;10.80;8.18;;;32.70;40.60;;;;;;4925843;29;20265;-43
2021/07/23 09:56:09;;;;;;;9.32;7.65;;;33.00;40.20;;;;;;4925893;29;20208;-44
2021/07/23 09:58:38;;;;;;;11.48;7.35;;;33.30;40.00;;;;;;4924186;29;20303;-44
2021/07/23 10:01:08;;;;;;;9.00;7.93;;;;;;;;;;4924674;29;20240;-42
2021/07/23 10:03:39;;;;;;;9.45;6.90;;;33.90;39.60;;;;;;4925700;29;20273;-44
2021/07/23 10:06:23;;;;;;;7.70;6.88;;;34.10;38.20;;;;;;4925152;29;20617;-42
2021/07/23 10:08:55;;;;;;;9.38;8.23;;;34.30;37.90;;;;;;4921050;29;20658;-44
2021/07/23 10:11:23;;;;;;;14.90;9.05;;;34.60;38.00;;;;;;4921578;29;20230;-43
2021/07/23 10:13:53;;;;;;;9.90;7.88;;;34.80;37.50;;;;;;4926950;29;20346;-45
2021/07/23 10:16:20;;;;;;;9.35;8.43;;;35.00;36.90;;;;;;4924368;29;20226;-43
2021/07/23 10:18:49;;;;;;;8.68;7.78;;;35.20;36.70;;;;;;4923637;29;20689;-43
2021/07/23 10:21:16;;;;;;;12.38;7.65;;;35.40;36.40;;;;;;4923862;29;20251;-43
2021/07/23 10:23:45;;;;;;;9.43;8.15;;;35.50;36.70;;;;;;4925470;29;20214;-43
2021/07/23 10:26:12;;;;;;;9.57;7.93;;;35.70;36.50;;;;;;4926658;29;20323;-43
2021/07/23 10:28:42;;;;;;;9.93;7.80;;;35.80;36.10;;;;;;4924182;29;20208;-44
2021/07/23 10:31:21;;;;;;;10.50;8.18;;;35.90;35.90;;;;;;4921761;29;20214;-43
2021/07/23 10:33:56;;;;;;;9.70;8.70;;;35.90;35.20;;;;;;4923167;29;20220;-44
2021/07/23 10:36:31;;;;;;;10.70;9.05;;;35.90;34.00;;;;;;4926835;29;20682;-43
2021/07/23 10:39:19;;;;;;;8.77;7.95;;;36.00;34.00;;;;;;4924104;29;20308;-43
2021/07/23 10:41:45;;;;;;;10.38;8.85;;;35.90;34.30;;;;;;4926853;29;20231;-43
2021/07/23 10:44:27;;;;;;;10.93;9.68;;;35.80;34.60;;;;;;4922222;29;20203;-43
2021/07/23 10:46:56;;;;;;;9.25;8.35;;;35.60;34.40;;;;;;4921842;29;20705;-44
2021/07/23 10:49:30;;;;;;;10.65;9.55;;;35.40;34.50;;;;;;4925061;29;20677;-43
2021/07/23 10:51:59;;;;;;;9.00;8.20;;;35.00;34.60;;;;;;4924011;29;20279;-43
2021/07/23 10:54:29;;;;;;;10.40;9.32;;;34.60;35.20;;;;;;4921070;29;20263;-43
2021/07/23 10:57:06;;;;;;;9.88;8.88;;;34.20;35.60;;;;;;4925347;29;20239;-44
2021/07/23 10:59:41;;;;;;;9.80;8.82;;;33.80;36.10;;;;;;4925839;29;20295;-43
2021/07/23 11:02:31;;;;;;;14.60;9.40;;;33.30;37.00;;;;;;4921050;29;20271;-44
2021/07/23 11:05:11;;;;;;;14.65;8.52;;;32.80;38.00;;;;;;4924907;29;20596;-43
2021/07/23 11:07:38;;;;;;;9.55;8.57;;;32.40;38.00;;;;;;4918527;29;20271;-43
2021/07/23 11:10:08;;;;;;;11.65;9.25;;;32.10;38.40;;;;;;4923072;29;20332;-44
2021/07/23 11:12:40;;;;;;;10.93;8.90;;;31.80;38.90;;;;;;4921424;29;20334;-44
2021/07/23 11:15:10;;;;;;;10.52;9.43;;;31.50;39.60;;;;;;4923927;29;20263;-43
2021/07/23 11:17:52;;;;;;;11.55;10.27;;;31.30;39.70;;;;;;4924040;29;20721;-43
2021/07/23 11:20:34;;;;;;;11.77;9.90;;;31.20;39.40;;;;;;4924672;29;20630;-42
2021/07/23 11:23:01;;;;;;;12.20;9.52;;;31.10;39.00;;;;;;4923857;29;20227;-43
2021/07/23 11:25:29;;;;;;;12.95;11.18;;;31.00;39.20;;;;;;4924210;29;20231;-42
2021/07/23 11:28:00;;;;;;;14.80;10.48;;;30.90;38.80;;;;;;4924934;29;20203;-44
2021/07/23 11:30:31;;;;;;;13.55;10.63;;;30.80;39.10;;;;;;4922470;29;20437;-43
2021/07/23 11:33:05;;;;;;;10.55;9.45;;;30.60;39.90;;;;;;4926098;29;20224;-43
2021/07/23 11:35:39;;;;;;;11.65;10.50;;;30.50;39.80;;;;;;4939862;29;21043;-43
2021/07/23 11:38:12;;;;;;;10.63;9.18;;;30.40;41.00;;;;;;4924123;29;20649;-42
2021/07/23 11:40:38;;;;;;;11.55;9.18;;;30.10;41.40;;;;;;4924144;29;20243;-44
2021/07/23 11:43:05;;;;;;;12.80;9.50;;;30.10;41.30;;;;;;4922773;29;20239;-42
2021/07/23 11:45:34;;;;;;;11.15;9.27;;;30.00;41.60;;;;;;4927579;29;20204;-44
2021/07/23 11:48:21;;;;;;;13.07;10.20;;;30.00;41.70;;;;;;4921727;29;20582;-44
2021/07/23 11:50:56;;;;;;;10.07;9.07;;;30.00;41.40;;;;;;4922715;29;20226;-43
2021/07/23 11:53:24;;;;;;;9.85;8.85;;;30.00;40.90;;;;;;4923970;29;20578;-44
2021/07/23 11:55:52;;;;;;;11.23;8.52;;;30.00;40.90;;;;;;4925133;29;20321;-45
2021/07/23 11:58:22;;;;;;;9.90;8.90;;;30.00;41.20;;;;;;4928239;29;20238;-43
2021/07/23 12:00:49;;;;;;;11.70;8.15;;;30.00;41.30;;;;;;4926218;29;20291;-43
2021/07/23 12:03:18;;;;;;;8.57;7.78;;;29.90;41.40;;;;;;4924566;29;20212;-43
2021/07/23 12:05:46;;;;;;;9.23;8.38;;;29.90;41.40;;;;;;4922395;29;21037;-43
2021/07/23 12:08:12;;;;;;;10.60;8.93;;;29.90;40.90;;;;;;4925437;29;20708;-42
2021/07/23 12:10:40;;;;;;;10.13;8.73;;;29.90;41.30;;;;;;4923945;29;20207;-42
2021/07/23 12:13:12;;;;;;;9.70;8.13;;;29.80;41.40;;;;;;4922069;29;20241;-43
2021/07/23 12:15:46;;;;;;;9.80;8.80;;;29.80;41.50;;;;;;4924708;29;20204;-44
2021/07/23 12:18:20;;;;;;;9.00;8.10;;;29.70;41.60;;;;;;4919645;29;20581;-42
2021/07/23 12:20:48;;;;;;;10.65;8.65;;;29.70;42.30;;;;;;4920142;29;20243;-43
2021/07/23 12:23:26;;;;;;;8.55;7.70;;;29.60;42.70;;;;;;4925766;29;20243;-43
2021/07/23 12:25:54;;;;;;;8.82;7.78;;;29.50;42.30;;;;;;4927879;29;20944;-43
2021/07/23 12:28:22;;;;;;;8.50;7.28;;;29.50;42.00;;;;;;4924181;29;20291;-44
2021/07/23 12:30:49;;;;;;;10.97;8.50;;;29.40;42.00;;;;;;4927360;29;20208;-43
2021/07/23 12:33:27;;;;;;;9.23;8.32;;;29.40;42.00;;;;;;4927313;29;20207;-42
2021/07/23 12:35:58;;;;;;;11.75;8.50;;;29.40;42.10;;;;;;4929855;29;20216;-43
2021/07/23 12:38:26;;;;;;;17.75;8.65;;;29.40;41.90;;;;;;4924672;29;20220;-43
2021/07/23 12:40:56;;;;;;;8.98;7.97;;;29.40;42.50;;;;;;4925249;29;20208;-43
2021/07/23 12:43:24;;;;;;;11.13;9.75;;;29.50;42.20;;;;;;4931869;29;20245;-43
2021/07/23 12:45:51;;;;;;;10.75;8.65;;;29.60;41.00;;;;;;4927533;29;20569;-44
2021/07/23 12:48:20;;;;;;;10.82;8.38;;;29.60;41.00;;;;;;4925155;29;20212;-44
2021/07/23 12:50:59;;;;;;;10.10;9.10;;;29.60;41.30;;;;;;4926861;29;20559;-42